sensor_id;sensor_type;location;lat;lon;timestamp;P1;durP1;ratioP1;P2;durP2;ratioP2
1721;SDS011;858;53.190;8.596;2022-08-05T00:01:12;10.57;;;5.30;;
1721;SDS011;858;53.190;8.596;2022-08-05T00:03:38;10.18;;;4.80;;
1721;SDS011;858;53.190;8.596;2022-08-05T00:06:05;11.68;;;4.68;;
1721;SDS011;858;53.190;8.596;2022-08-05T00:08:32;7.80;;;4.32;;
1721;SDS011;858;53.190;8.596;2022-08-05T00:10:59;8.35;;;4.93;;
1721;SDS011;858;53.190;8.596;2022-08-05T00:13:27;9.60;;;5.38;;
1721;SDS011;858;53.190;8.596;2022-08-05T00:15:53;11.52;;;6.65;;
1721;SDS011;858;53.190;8.596;2022-08-05T00:18:20;7.32;;;5.22;;
1721;SDS011;858;53.190;8.596;2022-08-05T00:20:46;8.27;;;5.25;;
1721;SDS011;858;53.190;8.596;2022-08-05T00:23:12;8.32;;;5.80;;
1721;SDS011;858;53.190;8.596;2022-08-05T00:25:39;12.20;;;6.60;;
1721;SDS011;858;53.190;8.596;2022-08-05T00:28:05;10.60;;;6.00;;
1721;SDS011;858;53.190;8.596;2022-08-05T00:30:33;11.43;;;5.75;;
1721;SDS011;858;53.190;8.596;2022-08-05T00:32:59;10.32;;;5.80;;
1721;SDS011;858;53.190;8.596;2022-08-05T00:35:26;7.93;;;5.60;;
1721;SDS011;858;53.190;8.596;2022-08-05T00:37:52;9.60;;;6.40;;
1721;SDS011;858;53.190;8.596;2022-08-05T00:40:20;9.53;;;6.20;;
1721;SDS011;858;53.190;8.596;2022-08-05T00:42:46;7.90;;;5.80;;
1721;SDS011;858;53.190;8.596;2022-08-05T00:45:13;11.95;;;6.90;;
1721;SDS011;858;53.190;8.596;2022-08-05T00:47:41;7.43;;;5.53;;
1721;SDS011;858;53.190;8.596;2022-08-05T00:50:08;9.15;;;6.47;;
1721;SDS011;858;53.190;8.596;2022-08-05T00:52:34;11.52;;;6.78;;
1721;SDS011;858;53.190;8.596;2022-08-05T00:55:01;9.68;;;6.45;;
1721;SDS011;858;53.190;8.596;2022-08-05T00:57:28;9.15;;;6.30;;
1721;SDS011;858;53.190;8.596;2022-08-05T00:59:54;8.32;;;5.90;;
1721;SDS011;858;53.190;8.596;2022-08-05T01:02:20;9.35;;;6.15;;
1721;SDS011;858;53.190;8.596;2022-08-05T01:04:48;9.68;;;5.80;;
1721;SDS011;858;53.190;8.596;2022-08-05T01:07:15;10.90;;;5.90;;
1721;SDS011;858;53.190;8.596;2022-08-05T01:09:41;9.68;;;6.20;;
1721;SDS011;858;53.190;8.596;2022-08-05T01:12:08;6.82;;;5.72;;
1721;SDS011;858;53.190;8.596;2022-08-05T01:14:39;12.30;;;6.03;;
1721;SDS011;858;53.190;8.596;2022-08-05T01:17:07;11.80;;;5.60;;
1721;SDS011;858;53.190;8.596;2022-08-05T01:19:35;9.00;;;6.05;;
1721;SDS011;858;53.190;8.596;2022-08-05T01:24:58;7.68;;;5.60;;
1721;SDS011;858;53.190;8.596;2022-08-05T01:30:02;10.73;;;5.80;;
1721;SDS011;858;53.190;8.596;2022-08-05T01:32:29;10.10;;;5.80;;
1721;SDS011;858;53.190;8.596;2022-08-05T01:34:57;8.05;;;6.07;;
1721;SDS011;858;53.190;8.596;2022-08-05T01:37:26;12.32;;;6.20;;
1721;SDS011;858;53.190;8.596;2022-08-05T01:39:56;10.50;;;6.82;;
1721;SDS011;858;53.190;8.596;2022-08-05T01:42:23;8.93;;;6.20;;
1721;SDS011;858;53.190;8.596;2022-08-05T01:44:50;12.38;;;6.65;;
1721;SDS011;858;53.190;8.596;2022-08-05T01:47:18;10.40;;;5.90;;
1721;SDS011;858;53.190;8.596;2022-08-05T01:49:46;10.65;;;6.22;;
1721;SDS011;858;53.190;8.596;2022-08-05T01:52:14;7.70;;;5.80;;
1721;SDS011;858;53.190;8.596;2022-08-05T01:54:43;8.88;;;5.95;;
1721;SDS011;858;53.190;8.596;2022-08-05T01:57:10;11.95;;;6.60;;
1721;SDS011;858;53.190;8.596;2022-08-05T01:59:37;10.80;;;6.70;;
1721;SDS011;858;53.190;8.596;2022-08-05T02:02:04;9.93;;;5.97;;
1721;SDS011;858;53.190;8.596;2022-08-05T02:04:33;10.05;;;6.63;;
1721;SDS011;858;53.190;8.596;2022-08-05T02:07:00;9.77;;;6.88;;
1721;SDS011;858;53.190;8.596;2022-08-05T02:09:27;10.75;;;6.82;;
1721;SDS011;858;53.190;8.596;2022-08-05T02:12:00;12.25;;;7.70;;
1721;SDS011;858;53.190;8.596;2022-08-05T02:14:29;12.55;;;7.43;;
1721;SDS011;858;53.190;8.596;2022-08-05T02:16:59;11.55;;;7.60;;
1721;SDS011;858;53.190;8.596;2022-08-05T02:19:29;7.90;;;6.70;;
1721;SDS011;858;53.190;8.596;2022-08-05T02:21:58;12.30;;;7.50;;
1721;SDS011;858;53.190;8.596;2022-08-05T02:24:26;8.68;;;6.50;;
1721;SDS011;858;53.190;8.596;2022-08-05T02:26:55;10.20;;;7.05;;
1721;SDS011;858;53.190;8.596;2022-08-05T02:29:23;11.50;;;7.47;;
1721;SDS011;858;53.190;8.596;2022-08-05T02:31:50;11.50;;;7.78;;
1721;SDS011;858;53.190;8.596;2022-08-05T02:34:19;11.13;;;8.30;;
1721;SDS011;858;53.190;8.596;2022-08-05T02:36:47;11.65;;;8.48;;
1721;SDS011;858;53.190;8.596;2022-08-05T02:39:16;11.02;;;8.00;;
1721;SDS011;858;53.190;8.596;2022-08-05T02:41:44;11.90;;;7.97;;
1721;SDS011;858;53.190;8.596;2022-08-05T02:44:12;13.35;;;8.85;;
1721;SDS011;858;53.190;8.596;2022-08-05T02:46:39;12.82;;;9.00;;
1721;SDS011;858;53.190;8.596;2022-08-05T02:49:06;14.30;;;9.00;;
1721;SDS011;858;53.190;8.596;2022-08-05T02:51:32;10.98;;;8.60;;
1721;SDS011;858;53.190;8.596;2022-08-05T02:53:59;13.63;;;9.13;;
1721;SDS011;858;53.190;8.596;2022-08-05T02:56:28;14.03;;;9.30;;
1721;SDS011;858;53.190;8.596;2022-08-05T02:58:55;12.80;;;9.00;;
1721;SDS011;858;53.190;8.596;2022-08-05T03:01:23;10.70;;;8.37;;
1721;SDS011;858;53.190;8.596;2022-08-05T03:03:51;11.40;;;8.50;;
1721;SDS011;858;53.190;8.596;2022-08-05T03:06:20;11.40;;;8.40;;
1721;SDS011;858;53.190;8.596;2022-08-05T03:08:47;12.20;;;8.00;;
1721;SDS011;858;53.190;8.596;2022-08-05T03:11:18;12.70;;;8.52;;
1721;SDS011;858;53.190;8.596;2022-08-05T03:13:46;12.80;;;8.60;;
1721;SDS011;858;53.190;8.596;2022-08-05T03:16:13;11.07;;;8.18;;
1721;SDS011;858;53.190;8.596;2022-08-05T03:18:40;14.02;;;10.55;;
1721;SDS011;858;53.190;8.596;2022-08-05T03:21:08;13.65;;;9.10;;
1721;SDS011;858;53.190;8.596;2022-08-05T03:23:34;12.43;;;9.40;;
1721;SDS011;858;53.190;8.596;2022-08-05T03:26:02;14.80;;;10.95;;
1721;SDS011;858;53.190;8.596;2022-08-05T03:28:29;14.95;;;10.30;;
1721;SDS011;858;53.190;8.596;2022-08-05T03:30:57;18.30;;;11.30;;
1721;SDS011;858;53.190;8.596;2022-08-05T03:33:24;13.05;;;10.90;;
1721;SDS011;858;53.190;8.596;2022-08-05T03:35:52;14.43;;;11.50;;
1721;SDS011;858;53.190;8.596;2022-08-05T03:38:20;14.00;;;10.90;;
1721;SDS011;858;53.190;8.596;2022-08-05T03:40:47;14.37;;;9.97;;
1721;SDS011;858;53.190;8.596;2022-08-05T03:43:14;12.30;;;9.60;;
1721;SDS011;858;53.190;8.596;2022-08-05T03:45:40;16.95;;;10.93;;
1721;SDS011;858;53.190;8.596;2022-08-05T03:48:09;18.58;;;11.77;;
1721;SDS011;858;53.190;8.596;2022-08-05T03:50:39;12.88;;;9.40;;
1721;SDS011;858;53.190;8.596;2022-08-05T03:53:10;13.18;;;9.40;;
1721;SDS011;858;53.190;8.596;2022-08-05T03:55:38;13.90;;;10.03;;
1721;SDS011;858;53.190;8.596;2022-08-05T03:58:07;17.23;;;9.25;;
1721;SDS011;858;53.190;8.596;2022-08-05T04:00:34;13.18;;;9.60;;
1721;SDS011;858;53.190;8.596;2022-08-05T04:03:01;12.57;;;9.55;;
1721;SDS011;858;53.190;8.596;2022-08-05T04:05:31;11.55;;;8.95;;
1721;SDS011;858;53.190;8.596;2022-08-05T04:07:58;18.10;;;10.43;;
1721;SDS011;858;53.190;8.596;2022-08-05T04:10:26;12.75;;;9.50;;
1721;SDS011;858;53.190;8.596;2022-08-05T04:12:53;11.52;;;10.10;;
1721;SDS011;858;53.190;8.596;2022-08-05T04:15:19;12.70;;;10.23;;
1721;SDS011;858;53.190;8.596;2022-08-05T04:17:46;14.60;;;10.18;;
1721;SDS011;858;53.190;8.596;2022-08-05T04:20:16;12.57;;;9.93;;
1721;SDS011;858;53.190;8.596;2022-08-05T04:22:44;16.70;;;9.90;;
1721;SDS011;858;53.190;8.596;2022-08-05T04:25:11;12.75;;;9.98;;
1721;SDS011;858;53.190;8.596;2022-08-05T04:27:37;12.60;;;9.93;;
1721;SDS011;858;53.190;8.596;2022-08-05T04:30:04;13.07;;;10.32;;
1721;SDS011;858;53.190;8.596;2022-08-05T04:32:31;16.27;;;10.63;;
1721;SDS011;858;53.190;8.596;2022-08-05T04:34:57;17.30;;;11.02;;
1721;SDS011;858;53.190;8.596;2022-08-05T04:37:24;19.55;;;11.70;;
1721;SDS011;858;53.190;8.596;2022-08-05T04:39:52;13.70;;;11.20;;
1721;SDS011;858;53.190;8.596;2022-08-05T04:42:18;17.70;;;10.90;;
1721;SDS011;858;53.190;8.596;2022-08-05T04:44:45;17.85;;;10.85;;
1721;SDS011;858;53.190;8.596;2022-08-05T04:47:11;13.73;;;9.90;;
1721;SDS011;858;53.190;8.596;2022-08-05T04:49:38;15.40;;;10.05;;
1721;SDS011;858;53.190;8.596;2022-08-05T04:52:05;15.65;;;10.77;;
1721;SDS011;858;53.190;8.596;2022-08-05T04:54:32;13.43;;;10.00;;
1721;SDS011;858;53.190;8.596;2022-08-05T04:57:00;14.77;;;10.98;;
1721;SDS011;858;53.190;8.596;2022-08-05T04:59:27;15.88;;;12.00;;
1721;SDS011;858;53.190;8.596;2022-08-05T05:01:53;16.88;;;11.90;;
1721;SDS011;858;53.190;8.596;2022-08-05T05:04:19;17.60;;;11.77;;
1721;SDS011;858;53.190;8.596;2022-08-05T05:06:46;15.68;;;11.23;;
1721;SDS011;858;53.190;8.596;2022-08-05T05:09:12;15.93;;;10.75;;
1721;SDS011;858;53.190;8.596;2022-08-05T05:11:39;16.92;;;10.80;;
1721;SDS011;858;53.190;8.596;2022-08-05T05:14:07;15.37;;;10.97;;
1721;SDS011;858;53.190;8.596;2022-08-05T05:16:35;12.60;;;10.65;;
1721;SDS011;858;53.190;8.596;2022-08-05T05:19:02;13.85;;;10.85;;
1721;SDS011;858;53.190;8.596;2022-08-05T05:21:28;12.53;;;10.10;;
1721;SDS011;858;53.190;8.596;2022-08-05T05:23:55;13.10;;;9.60;;
1721;SDS011;858;53.190;8.596;2022-08-05T05:26:21;14.95;;;10.10;;
1721;SDS011;858;53.190;8.596;2022-08-05T05:28:48;11.20;;;9.97;;
1721;SDS011;858;53.190;8.596;2022-08-05T05:31:16;13.77;;;10.30;;
1721;SDS011;858;53.190;8.596;2022-08-05T05:33:42;15.98;;;10.02;;
1721;SDS011;858;53.190;8.596;2022-08-05T05:36:08;12.55;;;10.02;;
1721;SDS011;858;53.190;8.596;2022-08-05T05:38:35;12.85;;;9.32;;
1721;SDS011;858;53.190;8.596;2022-08-05T05:41:01;17.75;;;11.05;;
1721;SDS011;858;53.190;8.596;2022-08-05T05:43:28;15.50;;;10.35;;
1721;SDS011;858;53.190;8.596;2022-08-05T05:45:54;12.88;;;9.95;;
1721;SDS011;858;53.190;8.596;2022-08-05T05:48:23;13.80;;;9.48;;
1721;SDS011;858;53.190;8.596;2022-08-05T05:50:49;14.73;;;10.60;;
1721;SDS011;858;53.190;8.596;2022-08-05T05:53:16;13.05;;;9.85;;
1721;SDS011;858;53.190;8.596;2022-08-05T05:55:42;13.05;;;9.30;;
1721;SDS011;858;53.190;8.596;2022-08-05T05:58:08;11.60;;;10.40;;
1721;SDS011;858;53.190;8.596;2022-08-05T06:00:35;13.05;;;9.80;;
1721;SDS011;858;53.190;8.596;2022-08-05T06:03:01;11.70;;;10.03;;
1721;SDS011;858;53.190;8.596;2022-08-05T06:05:30;14.45;;;9.52;;
1721;SDS011;858;53.190;8.596;2022-08-05T06:07:56;13.40;;;9.48;;
1721;SDS011;858;53.190;8.596;2022-08-05T06:10:23;11.97;;;10.13;;
1721;SDS011;858;53.190;8.596;2022-08-05T06:12:49;14.35;;;10.23;;
1721;SDS011;858;53.190;8.596;2022-08-05T06:15:15;12.10;;;8.95;;
1721;SDS011;858;53.190;8.596;2022-08-05T06:17:43;16.00;;;9.20;;
1721;SDS011;858;53.190;8.596;2022-08-05T06:20:10;15.18;;;9.38;;
1721;SDS011;858;53.190;8.596;2022-08-05T06:22:38;9.20;;;8.20;;
1721;SDS011;858;53.190;8.596;2022-08-05T06:25:05;12.25;;;8.10;;
1721;SDS011;858;53.190;8.596;2022-08-05T06:27:33;18.55;;;9.50;;
1721;SDS011;858;53.190;8.596;2022-08-05T06:29:59;10.80;;;8.32;;
1721;SDS011;858;53.190;8.596;2022-08-05T06:32:26;11.75;;;9.00;;
1721;SDS011;858;53.190;8.596;2022-08-05T06:34:52;12.35;;;9.70;;
1721;SDS011;858;53.190;8.596;2022-08-05T06:37:19;10.73;;;9.00;;
1721;SDS011;858;53.190;8.596;2022-08-05T06:39:47;13.30;;;9.45;;
1721;SDS011;858;53.190;8.596;2022-08-05T06:42:13;11.73;;;8.98;;
1721;SDS011;858;53.190;8.596;2022-08-05T06:44:40;11.15;;;8.70;;
1721;SDS011;858;53.190;8.596;2022-08-05T06:47:07;12.90;;;8.63;;
1721;SDS011;858;53.190;8.596;2022-08-05T06:49:34;10.95;;;8.75;;
1721;SDS011;858;53.190;8.596;2022-08-05T06:52:01;14.73;;;9.10;;
1721;SDS011;858;53.190;8.596;2022-08-05T06:54:27;12.48;;;9.68;;
1721;SDS011;858;53.190;8.596;2022-08-05T06:56:55;11.43;;;9.00;;
1721;SDS011;858;53.190;8.596;2022-08-05T06:59:22;15.48;;;9.85;;
1721;SDS011;858;53.190;8.596;2022-08-05T07:01:48;13.50;;;9.10;;
1721;SDS011;858;53.190;8.596;2022-08-05T07:04:15;9.97;;;8.23;;
1721;SDS011;858;53.190;8.596;2022-08-05T07:06:42;10.85;;;9.73;;
1721;SDS011;858;53.190;8.596;2022-08-05T07:09:08;12.55;;;10.23;;
1721;SDS011;858;53.190;8.596;2022-08-05T07:11:36;10.60;;;9.50;;
1721;SDS011;858;53.190;8.596;2022-08-05T07:14:04;12.00;;;9.60;;
1721;SDS011;858;53.190;8.596;2022-08-05T07:16:48;13.43;;;10.63;;
1721;SDS011;858;53.190;8.596;2022-08-05T07:19:15;12.55;;;9.80;;
1721;SDS011;858;53.190;8.596;2022-08-05T07:21:42;11.10;;;9.90;;
1721;SDS011;858;53.190;8.596;2022-08-05T07:24:08;12.05;;;9.52;;
1721;SDS011;858;53.190;8.596;2022-08-05T07:26:35;11.98;;;9.40;;
1721;SDS011;858;53.190;8.596;2022-08-05T07:29:01;11.18;;;9.50;;
1721;SDS011;858;53.190;8.596;2022-08-05T07:31:29;13.60;;;9.18;;
1721;SDS011;858;53.190;8.596;2022-08-05T07:33:56;12.00;;;8.90;;
1721;SDS011;858;53.190;8.596;2022-08-05T07:36:22;13.75;;;9.40;;
1721;SDS011;858;53.190;8.596;2022-08-05T07:38:49;10.98;;;9.07;;
1721;SDS011;858;53.190;8.596;2022-08-05T07:41:16;11.47;;;9.63;;
1721;SDS011;858;53.190;8.596;2022-08-05T07:43:43;13.55;;;10.25;;
1721;SDS011;858;53.190;8.596;2022-08-05T07:46:09;11.57;;;8.80;;
1721;SDS011;858;53.190;8.596;2022-08-05T07:48:37;12.57;;;9.40;;
1721;SDS011;858;53.190;8.596;2022-08-05T07:51:04;12.57;;;9.60;;
1721;SDS011;858;53.190;8.596;2022-08-05T07:53:30;10.50;;;8.67;;
1721;SDS011;858;53.190;8.596;2022-08-05T07:55:57;12.23;;;8.73;;
1721;SDS011;858;53.190;8.596;2022-08-05T07:58:24;12.57;;;8.77;;
1721;SDS011;858;53.190;8.596;2022-08-05T08:00:50;11.10;;;8.20;;
1721;SDS011;858;53.190;8.596;2022-08-05T08:03:16;13.60;;;8.60;;
1721;SDS011;858;53.190;8.596;2022-08-05T08:05:44;10.70;;;8.77;;
1721;SDS011;858;53.190;8.596;2022-08-05T08:08:11;12.82;;;9.00;;
1721;SDS011;858;53.190;8.596;2022-08-05T08:10:37;11.55;;;8.20;;
1721;SDS011;858;53.190;8.596;2022-08-05T08:13:05;11.57;;;9.00;;
1721;SDS011;858;53.190;8.596;2022-08-05T08:15:31;10.20;;;8.10;;
1721;SDS011;858;53.190;8.596;2022-08-05T08:17:57;12.17;;;9.07;;
1721;SDS011;858;53.190;8.596;2022-08-05T08:20:24;12.35;;;8.98;;
1721;SDS011;858;53.190;8.596;2022-08-05T08:22:53;11.90;;;9.40;;
1721;SDS011;858;53.190;8.596;2022-08-05T08:25:19;13.10;;;8.30;;
1721;SDS011;858;53.190;8.596;2022-08-05T08:27:47;11.10;;;8.98;;
1721;SDS011;858;53.190;8.596;2022-08-05T08:30:14;12.93;;;9.13;;
1721;SDS011;858;53.190;8.596;2022-08-05T08:32:41;11.63;;;8.90;;
1721;SDS011;858;53.190;8.596;2022-08-05T08:35:07;10.68;;;8.90;;
1721;SDS011;858;53.190;8.596;2022-08-05T08:37:34;9.70;;;8.80;;
1721;SDS011;858;53.190;8.596;2022-08-05T08:40:04;10.00;;;8.20;;
1721;SDS011;858;53.190;8.596;2022-08-05T08:42:30;12.40;;;8.90;;
1721;SDS011;858;53.190;8.596;2022-08-05T08:44:57;10.35;;;9.35;;
1721;SDS011;858;53.190;8.596;2022-08-05T08:47:25;11.60;;;9.20;;
1721;SDS011;858;53.190;8.596;2022-08-05T08:49:52;10.80;;;8.88;;
1721;SDS011;858;53.190;8.596;2022-08-05T08:52:21;11.97;;;8.60;;
1721;SDS011;858;53.190;8.596;2022-08-05T08:54:48;10.02;;;8.05;;
1721;SDS011;858;53.190;8.596;2022-08-05T08:57:17;11.05;;;8.85;;
1721;SDS011;858;53.190;8.596;2022-08-05T08:59:45;12.30;;;8.32;;
1721;SDS011;858;53.190;8.596;2022-08-05T09:02:14;10.25;;;8.93;;
1721;SDS011;858;53.190;8.596;2022-08-05T09:04:42;9.88;;;8.10;;
1721;SDS011;858;53.190;8.596;2022-08-05T09:07:09;10.65;;;8.55;;
1721;SDS011;858;53.190;8.596;2022-08-05T09:09:36;8.85;;;7.95;;
1721;SDS011;858;53.190;8.596;2022-08-05T09:12:02;9.35;;;7.20;;
1721;SDS011;858;53.190;8.596;2022-08-05T09:14:31;9.07;;;7.40;;
1721;SDS011;858;53.190;8.596;2022-08-05T09:16:58;8.23;;;7.40;;
1721;SDS011;858;53.190;8.596;2022-08-05T09:19:24;7.53;;;6.72;;
1721;SDS011;858;53.190;8.596;2022-08-05T09:21:51;9.15;;;7.15;;
1721;SDS011;858;53.190;8.596;2022-08-05T09:24:17;7.90;;;7.10;;
1721;SDS011;858;53.190;8.596;2022-08-05T09:26:45;8.25;;;7.00;;
1721;SDS011;858;53.190;8.596;2022-08-05T09:29:12;9.23;;;6.75;;
1721;SDS011;858;53.190;8.596;2022-08-05T09:31:40;8.95;;;6.03;;
1721;SDS011;858;53.190;8.596;2022-08-05T09:34:08;6.10;;;5.40;;
1721;SDS011;858;53.190;8.596;2022-08-05T09:36:41;7.22;;;5.47;;
1721;SDS011;858;53.190;8.596;2022-08-05T09:39:08;6.03;;;5.00;;
1721;SDS011;858;53.190;8.596;2022-08-05T09:41:40;6.47;;;5.88;;
1721;SDS011;858;53.190;8.596;2022-08-05T09:44:31;7.05;;;5.45;;
1721;SDS011;858;53.190;8.596;2022-08-05T09:47:07;9.15;;;5.97;;
1721;SDS011;858;53.190;8.596;2022-08-05T09:49:34;7.07;;;5.93;;
1721;SDS011;858;53.190;8.596;2022-08-05T09:52:15;7.47;;;5.70;;
1721;SDS011;858;53.190;8.596;2022-08-05T09:54:45;8.50;;;5.63;;
1721;SDS011;858;53.190;8.596;2022-08-05T09:57:27;8.60;;;5.78;;
1721;SDS011;858;53.190;8.596;2022-08-05T09:59:55;7.00;;;6.30;;
1721;SDS011;858;53.190;8.596;2022-08-05T10:02:34;6.88;;;6.00;;
1721;SDS011;858;53.190;8.596;2022-08-05T10:05:06;8.10;;;5.78;;
1721;SDS011;858;53.190;8.596;2022-08-05T10:07:43;9.98;;;6.50;;
1721;SDS011;858;53.190;8.596;2022-08-05T10:10:10;7.60;;;6.35;;
1721;SDS011;858;53.190;8.596;2022-08-05T10:12:40;8.48;;;5.80;;
1721;SDS011;858;53.190;8.596;2022-08-05T10:15:14;7.95;;;6.38;;
1721;SDS011;858;53.190;8.596;2022-08-05T10:17:42;8.70;;;6.32;;
1721;SDS011;858;53.190;8.596;2022-08-05T10:20:09;8.97;;;6.07;;
1721;SDS011;858;53.190;8.596;2022-08-05T10:22:38;7.70;;;6.60;;
1721;SDS011;858;53.190;8.596;2022-08-05T10:25:04;6.87;;;6.17;;
1721;SDS011;858;53.190;8.596;2022-08-05T10:27:31;10.32;;;6.68;;
1721;SDS011;858;53.190;8.596;2022-08-05T10:29:57;8.63;;;6.68;;
1721;SDS011;858;53.190;8.596;2022-08-05T10:32:24;9.70;;;6.75;;
1721;SDS011;858;53.190;8.596;2022-08-05T10:34:52;7.75;;;5.80;;
1721;SDS011;858;53.190;8.596;2022-08-05T10:37:19;7.05;;;5.95;;
1721;SDS011;858;53.190;8.596;2022-08-05T10:39:46;8.20;;;6.30;;
1721;SDS011;858;53.190;8.596;2022-08-05T10:42:17;7.72;;;7.03;;
1721;SDS011;858;53.190;8.596;2022-08-05T10:44:46;7.88;;;6.28;;
1721;SDS011;858;53.190;8.596;2022-08-05T10:47:14;12.38;;;6.82;;
1721;SDS011;858;53.190;8.596;2022-08-05T10:52:47;8.65;;;7.10;;
1721;SDS011;858;53.190;8.596;2022-08-05T10:55:21;8.02;;;5.50;;
1721;SDS011;858;53.190;8.596;2022-08-05T10:57:48;7.30;;;5.82;;
1721;SDS011;858;53.190;8.596;2022-08-05T11:00:31;6.90;;;6.20;;
1721;SDS011;858;53.190;8.596;2022-08-05T11:03:10;7.60;;;6.67;;
1721;SDS011;858;53.190;8.596;2022-08-05T11:05:38;8.05;;;7.13;;
1721;SDS011;858;53.190;8.596;2022-08-05T11:08:07;10.45;;;7.65;;
1721;SDS011;858;53.190;8.596;2022-08-05T11:10:34;6.87;;;5.30;;
1721;SDS011;858;53.190;8.596;2022-08-05T11:13:02;7.93;;;5.68;;
1721;SDS011;858;53.190;8.596;2022-08-05T11:15:30;7.20;;;5.23;;
1721;SDS011;858;53.190;8.596;2022-08-05T11:18:05;7.63;;;5.32;;
1721;SDS011;858;53.190;8.596;2022-08-05T11:20:41;7.78;;;6.13;;
1721;SDS011;858;53.190;8.596;2022-08-05T11:23:33;6.05;;;5.40;;
1721;SDS011;858;53.190;8.596;2022-08-05T11:26:02;6.80;;;5.50;;
1721;SDS011;858;53.190;8.596;2022-08-05T11:28:42;7.35;;;5.35;;
1721;SDS011;858;53.190;8.596;2022-08-05T11:31:19;6.18;;;5.57;;
1721;SDS011;858;53.190;8.596;2022-08-05T11:33:51;8.50;;;6.00;;
1721;SDS011;858;53.190;8.596;2022-08-05T11:36:20;8.27;;;6.80;;
1721;SDS011;858;53.190;8.596;2022-08-05T11:38:51;8.93;;;6.43;;
1721;SDS011;858;53.190;8.596;2022-08-05T11:41:20;8.45;;;6.38;;
1721;SDS011;858;53.190;8.596;2022-08-05T11:43:53;8.60;;;6.50;;
1721;SDS011;858;53.190;8.596;2022-08-05T11:46:24;7.50;;;6.10;;
1721;SDS011;858;53.190;8.596;2022-08-05T11:48:50;8.50;;;6.30;;
1721;SDS011;858;53.190;8.596;2022-08-05T11:51:17;8.60;;;7.10;;
1721;SDS011;858;53.190;8.596;2022-08-05T11:53:43;6.82;;;6.18;;
1721;SDS011;858;53.190;8.596;2022-08-05T11:56:12;7.43;;;5.95;;
1721;SDS011;858;53.190;8.596;2022-08-05T11:58:40;7.05;;;5.60;;
1721;SDS011;858;53.190;8.596;2022-08-05T12:01:07;8.45;;;6.60;;
1721;SDS011;858;53.190;8.596;2022-08-05T12:03:41;7.78;;;6.30;;
1721;SDS011;858;53.190;8.596;2022-08-05T12:06:08;10.73;;;7.80;;
1721;SDS011;858;53.190;8.596;2022-08-05T12:08:38;8.95;;;7.20;;
1721;SDS011;858;53.190;8.596;2022-08-05T12:11:05;8.00;;;6.80;;
1721;SDS011;858;53.190;8.596;2022-08-05T12:13:34;8.00;;;7.30;;
1721;SDS011;858;53.190;8.596;2022-08-05T12:16:02;8.10;;;7.00;;
1721;SDS011;858;53.190;8.596;2022-08-05T12:18:31;7.20;;;6.50;;
1721;SDS011;858;53.190;8.596;2022-08-05T12:21:09;7.85;;;6.65;;
1721;SDS011;858;53.190;8.596;2022-08-05T12:23:36;6.78;;;5.97;;
1721;SDS011;858;53.190;8.596;2022-08-05T12:26:03;9.00;;;6.30;;
1721;SDS011;858;53.190;8.596;2022-08-05T12:28:30;8.18;;;6.60;;
1721;SDS011;858;53.190;8.596;2022-08-05T12:30:59;6.45;;;5.80;;
1721;SDS011;858;53.190;8.596;2022-08-05T12:33:26;7.30;;;5.75;;
1721;SDS011;858;53.190;8.596;2022-08-05T12:35:52;7.97;;;6.20;;
1721;SDS011;858;53.190;8.596;2022-08-05T12:38:20;7.57;;;5.90;;
1721;SDS011;858;53.190;8.596;2022-08-05T12:40:47;6.25;;;4.60;;
1721;SDS011;858;53.190;8.596;2022-08-05T12:43:14;6.35;;;4.95;;
1721;SDS011;858;53.190;8.596;2022-08-05T12:45:49;8.13;;;4.80;;
1721;SDS011;858;53.190;8.596;2022-08-05T12:48:17;6.70;;;5.20;;
1721;SDS011;858;53.190;8.596;2022-08-05T12:50:43;7.22;;;4.80;;
1721;SDS011;858;53.190;8.596;2022-08-05T12:53:29;7.57;;;4.60;;
1721;SDS011;858;53.190;8.596;2022-08-05T12:55:56;8.63;;;5.10;;
1721;SDS011;858;53.190;8.596;2022-08-05T12:58:23;6.10;;;4.05;;
1721;SDS011;858;53.190;8.596;2022-08-05T13:00:49;6.82;;;4.50;;
1721;SDS011;858;53.190;8.596;2022-08-05T13:03:18;6.07;;;4.00;;
1721;SDS011;858;53.190;8.596;2022-08-05T13:05:45;4.63;;;3.90;;
1721;SDS011;858;53.190;8.596;2022-08-05T13:08:12;6.82;;;3.90;;
1721;SDS011;858;53.190;8.596;2022-08-05T13:10:42;6.63;;;3.80;;
1721;SDS011;858;53.190;8.596;2022-08-05T13:13:08;4.20;;;3.60;;
1721;SDS011;858;53.190;8.596;2022-08-05T13:15:35;4.10;;;3.35;;
1721;SDS011;858;53.190;8.596;2022-08-05T13:18:05;5.97;;;3.88;;
1721;SDS011;858;53.190;8.596;2022-08-05T13:20:36;5.00;;;3.20;;
1721;SDS011;858;53.190;8.596;2022-08-05T13:23:03;5.35;;;3.80;;
1721;SDS011;858;53.190;8.596;2022-08-05T13:25:30;4.85;;;3.58;;
1721;SDS011;858;53.190;8.596;2022-08-05T13:27:57;7.75;;;4.05;;
1721;SDS011;858;53.190;8.596;2022-08-05T13:30:23;6.18;;;4.15;;
1721;SDS011;858;53.190;8.596;2022-08-05T13:32:52;7.75;;;3.85;;
1721;SDS011;858;53.190;8.596;2022-08-05T13:35:18;6.78;;;4.00;;
1721;SDS011;858;53.190;8.596;2022-08-05T13:37:46;6.63;;;3.58;;
1721;SDS011;858;53.190;8.596;2022-08-05T13:40:13;5.70;;;3.90;;
1721;SDS011;858;53.190;8.596;2022-08-05T13:42:40;6.03;;;3.50;;
1721;SDS011;858;53.190;8.596;2022-08-05T13:45:08;4.63;;;3.07;;
1721;SDS011;858;53.190;8.596;2022-08-05T13:47:34;4.90;;;3.35;;
1721;SDS011;858;53.190;8.596;2022-08-05T13:50:03;6.00;;;3.50;;
1721;SDS011;858;53.190;8.596;2022-08-05T13:52:31;3.25;;;2.90;;
1721;SDS011;858;53.190;8.596;2022-08-05T13:54:58;3.20;;;2.85;;
1721;SDS011;858;53.190;8.596;2022-08-05T13:57:25;4.20;;;1.60;;
1721;SDS011;858;53.190;8.596;2022-08-05T13:59:51;3.67;;;1.45;;
1721;SDS011;858;53.190;8.596;2022-08-05T14:02:18;1.30;;;1.10;;
1721;SDS011;858;53.190;8.596;2022-08-05T14:04:45;2.03;;;1.30;;
1721;SDS011;858;53.190;8.596;2022-08-05T14:07:31;1.93;;;0.97;;
1721;SDS011;858;53.190;8.596;2022-08-05T14:09:59;3.50;;;0.80;;
1721;SDS011;858;53.190;8.596;2022-08-05T14:12:25;2.63;;;0.82;;
1721;SDS011;858;53.190;8.596;2022-08-05T14:14:52;1.77;;;0.70;;
1721;SDS011;858;53.190;8.596;2022-08-05T14:17:22;3.10;;;0.90;;
1721;SDS011;858;53.190;8.596;2022-08-05T14:19:50;3.20;;;1.00;;
1721;SDS011;858;53.190;8.596;2022-08-05T14:22:17;2.28;;;0.80;;
1721;SDS011;858;53.190;8.596;2022-08-05T14:24:43;2.70;;;0.90;;
1721;SDS011;858;53.190;8.596;2022-08-05T14:27:11;1.30;;;0.60;;
1721;SDS011;858;53.190;8.596;2022-08-05T14:29:37;3.05;;;0.82;;
1721;SDS011;858;53.190;8.596;2022-08-05T14:32:04;3.40;;;0.68;;
1721;SDS011;858;53.190;8.596;2022-08-05T14:34:30;1.60;;;0.60;;
1721;SDS011;858;53.190;8.596;2022-08-05T14:36:58;2.60;;;0.85;;
1721;SDS011;858;53.190;8.596;2022-08-05T14:39:24;2.20;;;0.70;;
1721;SDS011;858;53.190;8.596;2022-08-05T14:41:51;2.10;;;0.70;;
1721;SDS011;858;53.190;8.596;2022-08-05T14:44:19;2.70;;;0.80;;
1721;SDS011;858;53.190;8.596;2022-08-05T14:46:45;0.70;;;0.60;;
1721;SDS011;858;53.190;8.596;2022-08-05T14:49:11;3.70;;;0.85;;
1721;SDS011;858;53.190;8.596;2022-08-05T14:51:38;1.17;;;0.70;;
1721;SDS011;858;53.190;8.596;2022-08-05T14:54:05;0.85;;;0.70;;
1721;SDS011;858;53.190;8.596;2022-08-05T14:56:31;2.70;;;0.80;;
1721;SDS011;858;53.190;8.596;2022-08-05T14:58:58;2.00;;;0.70;;
1721;SDS011;858;53.190;8.596;2022-08-05T15:01:26;1.75;;;0.80;;
1721;SDS011;858;53.190;8.596;2022-08-05T15:03:53;0.88;;;0.40;;
1721;SDS011;858;53.190;8.596;2022-08-05T15:06:19;3.00;;;0.75;;
1721;SDS011;858;53.190;8.596;2022-08-05T15:08:45;1.07;;;0.80;;
1721;SDS011;858;53.190;8.596;2022-08-05T15:11:12;1.58;;;0.60;;
1721;SDS011;858;53.190;8.596;2022-08-05T15:13:39;1.38;;;0.60;;
1721;SDS011;858;53.190;8.596;2022-08-05T15:16:05;3.47;;;0.70;;
1721;SDS011;858;53.190;8.596;2022-08-05T15:18:37;2.30;;;0.50;;
1721;SDS011;858;53.190;8.596;2022-08-05T15:21:03;1.50;;;0.60;;
1721;SDS011;858;53.190;8.596;2022-08-05T15:23:30;2.30;;;0.60;;
1721;SDS011;858;53.190;8.596;2022-08-05T15:25:56;1.30;;;0.60;;
1721;SDS011;858;53.190;8.596;2022-08-05T15:28:22;2.07;;;0.60;;
1721;SDS011;858;53.190;8.596;2022-08-05T15:30:49;2.15;;;1.00;;
1721;SDS011;858;53.190;8.596;2022-08-05T15:33:15;2.50;;;0.80;;